sensor_id;sensor_type;location;lat;lon;timestamp;pressure;altitude;pressure_sealevel;temperature;humidity
49835;BME280;35729;52.090;13.162;2022-12-28T00:01:31;101633.59;;;2.79;92.68
49835;BME280;35729;52.090;13.162;2022-12-28T00:04:01;101632.72;;;2.79;92.22
49835;BME280;35729;52.090;13.162;2022-12-28T00:06:30;101629.34;;;2.81;92.21
49835;BME280;35729;52.090;13.162;2022-12-28T00:09:01;101623.31;;;2.82;92.89
49835;BME280;35729;52.090;13.162;2022-12-28T00:11:30;101614.72;;;2.83;93.18
49835;BME280;35729;52.090;13.162;2022-12-28T00:14:00;101620.75;;;2.84;92.63
49835;BME280;35729;52.090;13.162;2022-12-28T00:16:30;101611.25;;;2.84;92.71
49835;BME280;35729;52.090;13.162;2022-12-28T00:19:02;101602.63;;;2.84;92.09
49835;BME280;35729;52.090;13.162;2022-12-28T00:21:31;101600.06;;;2.85;93.04
49835;BME280;35729;52.090;13.162;2022-12-28T00:24:03;101607.00;;;2.86;92.54
49835;BME280;35729;52.090;13.162;2022-12-28T00:26:33;101609.63;;;2.88;92.69
49835;BME280;35729;52.090;13.162;2022-12-28T00:29:02;101604.44;;;2.88;93.18
49835;BME280;35729;52.090;13.162;2022-12-28T00:31:31;101605.31;;;2.88;93.11
49835;BME280;35729;52.090;13.162;2022-12-28T00:34:00;101598.41;;;2.89;92.12
49835;BME280;35729;52.090;13.162;2022-12-28T00:36:29;101591.53;;;2.89;93.73
49835;BME280;35729;52.090;13.162;2022-12-28T00:38:58;101592.41;;;2.90;94.40
49835;BME280;35729;52.090;13.162;2022-12-28T00:41:29;101590.66;;;2.90;94.10
49835;BME280;35729;52.090;13.162;2022-12-28T00:43:57;101584.66;;;2.91;93.45
49835;BME280;35729;52.090;13.162;2022-12-28T00:46:26;101583.78;;;2.91;94.16
49835;BME280;35729;52.090;13.162;2022-12-28T00:48:54;101585.53;;;2.92;93.74
49835;BME280;35729;52.090;13.162;2022-12-28T00:51:22;101584.66;;;2.91;94.11
49835;BME280;35729;52.090;13.162;2022-12-28T00:53:51;101584.69;;;2.93;94.17
49835;BME280;35729;52.090;13.162;2022-12-28T00:56:21;101582.09;;;2.93;94.09
49835;BME280;35729;52.090;13.162;2022-12-28T00:58:54;101575.97;;;2.89;93.86
49835;BME280;35729;52.090;13.162;2022-12-28T01:01:24;101584.75;;;2.95;93.00
49835;BME280;35729;52.090;13.162;2022-12-28T01:03:54;101580.38;;;2.93;94.49
49835;BME280;35729;52.090;13.162;2022-12-28T01:06:29;101586.53;;;2.97;93.94
49835;BME280;35729;52.090;13.162;2022-12-28T01:08:58;101582.16;;;2.96;93.83
49835;BME280;35729;52.090;13.162;2022-12-28T01:11:29;101576.16;;;2.97;93.34
49835;BME280;35729;52.090;13.162;2022-12-28T01:14:00;101582.19;;;2.98;93.31
49835;BME280;35729;52.090;13.162;2022-12-28T01:16:31;101579.59;;;2.98;93.01
49835;BME280;35729;52.090;13.162;2022-12-28T01:19:02;101585.66;;;2.98;93.08
49835;BME280;35729;52.090;13.162;2022-12-28T01:21:32;101584.78;;;2.98;93.04
49835;BME280;35729;52.090;13.162;2022-12-28T01:24:03;101573.56;;;2.97;93.06
49835;BME280;35729;52.090;13.162;2022-12-28T01:26:38;101566.66;;;2.98;92.76
49835;BME280;35729;52.090;13.162;2022-12-28T01:29:10;101563.13;;;2.96;92.70
49835;BME280;35729;52.090;13.162;2022-12-28T01:31:38;101552.72;;;2.94;92.94
49835;BME280;35729;52.090;13.162;2022-12-28T01:34:06;101544.91;;;2.91;92.19
49835;BME280;35729;52.090;13.162;2022-12-28T01:36:35;101549.28;;;2.93;92.78
49835;BME280;35729;52.090;13.162;2022-12-28T01:39:05;101550.13;;;2.94;92.86
49835;BME280;35729;52.090;13.162;2022-12-28T01:41:38;101531.84;;;2.88;92.74
49835;BME280;35729;52.090;13.162;2022-12-28T01:47:18;101540.56;;;2.90;92.99
49835;BME280;35729;52.090;13.162;2022-12-28T01:49:52;101531.03;;;2.89;93.69
49835;BME280;35729;52.090;13.162;2022-12-28T01:52:27;101519.66;;;2.82;93.90
49835;BME280;35729;52.090;13.162;2022-12-28T01:55:00;101509.31;;;2.84;93.36
49835;BME280;35729;52.090;13.162;2022-12-28T01:57:34;101509.28;;;2.82;93.35
49835;BME280;35729;52.090;13.162;2022-12-28T02:00:08;101506.66;;;2.81;93.88
49835;BME280;35729;52.090;13.162;2022-12-28T02:02:43;101502.28;;;2.78;93.87
49835;BME280;35729;52.090;13.162;2022-12-28T02:05:12;101488.38;;;2.74;92.20
49835;BME280;35729;52.090;13.162;2022-12-28T02:07:45;101492.66;;;2.72;93.30
49835;BME280;35729;52.090;13.162;2022-12-28T02:10:18;101479.66;;;2.71;94.15
49835;BME280;35729;52.090;13.162;2022-12-28T02:12:47;101476.16;;;2.69;94.08
49835;BME280;35729;52.090;13.162;2022-12-28T02:15:15;101469.19;;;2.66;93.79
49835;BME280;35729;52.090;13.162;2022-12-28T02:17:46;101463.94;;;2.63;94.07
49835;BME280;35729;52.090;13.162;2022-12-28T02:20:15;101456.16;;;2.63;93.43
49835;BME280;35729;52.090;13.162;2022-12-28T02:26:10;101437.94;;;2.60;93.48
49835;BME280;35729;52.090;13.162;2022-12-28T02:31:49;101423.13;;;2.53;93.97
49835;BME280;35729;52.090;13.162;2022-12-28T02:34:24;101418.00;;;2.56;93.64
49835;BME280;35729;52.090;13.162;2022-12-28T02:36:58;101408.44;;;2.52;93.08
49835;BME280;35729;52.090;13.162;2022-12-28T02:39:32;101409.28;;;2.52;93.46
49835;BME280;35729;52.090;13.162;2022-12-28T02:42:03;101394.50;;;2.47;93.24
49835;BME280;35729;52.090;13.162;2022-12-28T02:44:34;101394.56;;;2.50;93.03
49835;BME280;35729;52.090;13.162;2022-12-28T02:47:18;101393.69;;;2.49;93.16
49835;BME280;35729;52.090;13.162;2022-12-28T02:49:59;101386.75;;;2.48;92.39
49835;BME280;35729;52.090;13.162;2022-12-28T02:53:00;101380.66;;;2.46;93.67
49835;BME280;35729;52.090;13.162;2022-12-28T02:55:42;101391.03;;;2.48;93.30
49835;BME280;35729;52.090;13.162;2022-12-28T02:59:08;101383.25;;;2.46;92.12
49835;BME280;35729;52.090;13.162;2022-12-28T03:04:57;101370.31;;;2.48;94.07
49835;BME280;35729;52.090;13.162;2022-12-28T03:07:35;101361.75;;;2.50;94.17
49835;BME280;35729;52.090;13.162;2022-12-28T03:10:23;101357.47;;;2.52;94.27
49835;BME280;35729;52.090;13.162;2022-12-28T03:12:56;101355.78;;;2.53;93.09
49835;BME280;35729;52.090;13.162;2022-12-28T03:15:29;101351.44;;;2.52;93.25
49835;BME280;35729;52.090;13.162;2022-12-28T03:18:04;101354.03;;;2.52;93.04
49835;BME280;35729;52.090;13.162;2022-12-28T03:20:51;101350.53;;;2.50;93.11
49835;BME280;35729;52.090;13.162;2022-12-28T03:23:34;101347.06;;;2.49;93.54
49835;BME280;35729;52.090;13.162;2022-12-28T03:26:19;101341.84;;;2.48;93.20
49835;BME280;35729;52.090;13.162;2022-12-28T03:29:02;101329.75;;;2.47;93.33
49835;BME280;35729;52.090;13.162;2022-12-28T03:31:44;101317.63;;;2.46;93.09
49835;BME280;35729;52.090;13.162;2022-12-28T03:34:12;101314.16;;;2.45;93.07
49835;BME280;35729;52.090;13.162;2022-12-28T03:36:52;101323.66;;;2.44;93.05
49835;BME280;35729;52.090;13.162;2022-12-28T03:39:31;101316.75;;;2.45;92.92
49835;BME280;35729;52.090;13.162;2022-12-28T03:42:13;101299.41;;;2.42;92.74
49835;BME280;35729;52.090;13.162;2022-12-28T03:44:58;101294.25;;;2.42;92.79
49835;BME280;35729;52.090;13.162;2022-12-28T03:47:29;101291.66;;;2.42;92.21
49835;BME280;35729;52.090;13.162;2022-12-28T03:49:59;101276.97;;;2.41;92.49
49835;BME280;35729;52.090;13.162;2022-12-28T03:52:30;101267.47;;;2.40;92.16
49835;BME280;35729;52.090;13.162;2022-12-28T03:54:59;101264.03;;;2.41;92.16
49835;BME280;35729;52.090;13.162;2022-12-28T03:57:28;101264.03;;;2.41;92.81
49835;BME280;35729;52.090;13.162;2022-12-28T03:59:56;101257.97;;;2.42;92.88
49835;BME280;35729;52.090;13.162;2022-12-28T04:02:25;101251.09;;;2.41;92.67
49835;BME280;35729;52.090;13.162;2022-12-28T04:04:53;101250.22;;;2.42;91.98
49835;BME280;35729;52.090;13.162;2022-12-28T04:07:21;101235.53;;;2.41;91.99
49835;BME280;35729;52.090;13.162;2022-12-28T04:09:52;101227.78;;;2.41;92.03
49835;BME280;35729;52.090;13.162;2022-12-28T04:12:21;101220.00;;;2.41;91.53
49835;BME280;35729;52.090;13.162;2022-12-28T04:14:49;101216.53;;;2.41;92.00
49835;BME280;35729;52.090;13.162;2022-12-28T04:17:18;101213.94;;;2.41;91.45
49835;BME280;35729;52.090;13.162;2022-12-28T04:19:46;101210.50;;;2.42;92.51
49835;BME280;35729;52.090;13.162;2022-12-28T04:22:15;101204.47;;;2.41;92.00
49835;BME280;35729;52.090;13.162;2022-12-28T04:24:43;101215.66;;;2.40;92.18
49835;BME280;35729;52.090;13.162;2022-12-28T04:27:14;101212.19;;;2.40;91.98
49835;BME280;35729;52.090;13.162;2022-12-28T04:29:43;101201.81;;;2.38;92.21
49835;BME280;35729;52.090;13.162;2022-12-28T04:32:12;101201.81;;;2.40;91.80
49835;BME280;35729;52.090;13.162;2022-12-28T04:34:40;101190.59;;;2.39;91.49
49835;BME280;35729;52.090;13.162;2022-12-28T04:37:09;101188.88;;;2.40;91.43
49835;BME280;35729;52.090;13.162;2022-12-28T04:39:37;101188.03;;;2.41;91.92
49835;BME280;35729;52.090;13.162;2022-12-28T04:42:06;101187.19;;;2.42;91.94
49835;BME280;35729;52.090;13.162;2022-12-28T04:44:37;101186.34;;;2.41;91.51
49835;BME280;35729;52.090;13.162;2022-12-28T04:47:05;101187.19;;;2.42;91.85
49835;BME280;35729;52.090;13.162;2022-12-28T04:49:33;101185.41;;;2.39;91.29
49835;BME280;35729;52.090;13.162;2022-12-28T04:52:02;101183.75;;;2.41;91.39
49835;BME280;35729;52.090;13.162;2022-12-28T04:54:31;101188.06;;;2.42;90.76
49835;BME280;35729;52.090;13.162;2022-12-28T04:56:59;101201.00;;;2.42;91.21
49835;BME280;35729;52.090;13.162;2022-12-28T04:59:27;101194.97;;;2.42;90.34
49835;BME280;35729;52.090;13.162;2022-12-28T05:01:58;101192.34;;;2.40;90.98
49835;BME280;35729;52.090;13.162;2022-12-28T05:04:27;101186.34;;;2.41;92.29
49835;BME280;35729;52.090;13.162;2022-12-28T05:06:55;101186.34;;;2.41;92.08
49835;BME280;35729;52.090;13.162;2022-12-28T05:09:24;101183.75;;;2.41;91.51
49835;BME280;35729;52.090;13.162;2022-12-28T05:11:52;101169.06;;;2.42;91.76
49835;BME280;35729;52.090;13.162;2022-12-28T05:14:21;101159.56;;;2.42;92.22
49835;BME280;35729;52.090;13.162;2022-12-28T05:16:49;101163.88;;;2.42;92.48
49835;BME280;35729;52.090;13.162;2022-12-28T05:19:20;101156.97;;;2.42;90.98
49835;BME280;35729;52.090;13.162;2022-12-28T05:21:49;101162.22;;;2.46;90.73
49835;BME280;35729;52.090;13.162;2022-12-28T05:24:17;101158.81;;;2.48;91.18
49835;BME280;35729;52.090;13.162;2022-12-28T05:26:46;101157.13;;;2.50;89.83
49835;BME280;35729;52.090;13.162;2022-12-28T05:29:14;101154.63;;;2.55;89.92
49835;BME280;35729;52.090;13.162;2022-12-28T05:31:43;101159.00;;;2.59;90.55
49835;BME280;35729;52.090;13.162;2022-12-28T05:34:11;101160.81;;;2.63;89.90
49835;BME280;35729;52.090;13.162;2022-12-28T05:36:42;101156.59;;;2.68;88.83
49835;BME280;35729;52.090;13.162;2022-12-28T05:39:11;101154.94;;;2.73;90.01
49835;BME280;35729;52.090;13.162;2022-12-28T05:41:39;101146.38;;;2.77;90.87
49835;BME280;35729;52.090;13.162;2022-12-28T05:44:08;101153.34;;;2.82;90.29
49835;BME280;35729;52.090;13.162;2022-12-28T05:46:36;101135.28;;;2.85;89.16
49835;BME280;35729;52.090;13.162;2022-12-28T05:49:07;101135.31;;;2.88;88.87
49835;BME280;35729;52.090;13.162;2022-12-28T05:51:35;101126.78;;;2.93;89.36
49835;BME280;35729;52.090;13.162;2022-12-28T05:54:06;101125.94;;;2.96;88.51
49835;BME280;35729;52.090;13.162;2022-12-28T05:56:35;101126.00;;;3.01;89.30
49835;BME280;35729;52.090;13.162;2022-12-28T05:59:05;101123.47;;;3.05;88.85
49835;BME280;35729;52.090;13.162;2022-12-28T06:01:36;101108.84;;;3.09;88.20
49835;BME280;35729;52.090;13.162;2022-12-28T06:04:06;101111.47;;;3.12;88.73
49835;BME280;35729;52.090;13.162;2022-12-28T06:06:35;101101.19;;;3.17;89.37
49835;BME280;35729;52.090;13.162;2022-12-28T06:09:06;101106.44;;;3.21;86.64
49835;BME280;35729;52.090;13.162;2022-12-28T06:11:35;101106.47;;;3.24;88.56
49835;BME280;35729;52.090;13.162;2022-12-28T06:14:04;101103.97;;;3.29;87.92
49835;BME280;35729;52.090;13.162;2022-12-28T06:16:35;101107.44;;;3.31;86.31
49835;BME280;35729;52.090;13.162;2022-12-28T06:19:06;101085.91;;;3.37;87.32
49835;BME280;35729;52.090;13.162;2022-12-28T06:21:36;101098.94;;;3.41;88.37
49835;BME280;35729;52.090;13.162;2022-12-28T06:24:09;101094.69;;;3.45;87.51
49835;BME280;35729;52.090;13.162;2022-12-28T06:26:40;101088.66;;;3.48;87.74
49835;BME280;35729;52.090;13.162;2022-12-28T06:29:09;101105.16;;;3.53;87.08
49835;BME280;35729;52.090;13.162;2022-12-28T06:31:39;101088.72;;;3.54;86.65
49835;BME280;35729;52.090;13.162;2022-12-28T06:34:08;101088.75;;;3.57;86.13
49835;BME280;35729;52.090;13.162;2022-12-28T06:36:39;101087.94;;;3.61;85.43
49835;BME280;35729;52.090;13.162;2022-12-28T06:39:17;101088.84;;;3.65;86.05
49835;BME280;35729;52.090;13.162;2022-12-28T06:41:45;101079.38;;;3.68;85.93
49835;BME280;35729;52.090;13.162;2022-12-28T06:44:14;101070.75;;;3.71;86.87
49835;BME280;35729;52.090;13.162;2022-12-28T06:46:42;101071.63;;;3.71;87.23
49835;BME280;35729;52.090;13.162;2022-12-28T06:49:11;101069.03;;;3.71;86.80
49835;BME280;35729;52.090;13.162;2022-12-28T06:51:39;101058.69;;;3.73;88.15
49835;BME280;35729;52.090;13.162;2022-12-28T06:54:08;101067.31;;;3.70;87.58
49835;BME280;35729;52.090;13.162;2022-12-28T06:56:39;101070.78;;;3.72;88.49
49835;BME280;35729;52.090;13.162;2022-12-28T06:59:08;101056.94;;;3.70;88.19
49835;BME280;35729;52.090;13.162;2022-12-28T07:01:38;101067.31;;;3.70;89.02
49835;BME280;35729;52.090;13.162;2022-12-28T07:04:09;101050.84;;;3.68;89.31
49835;BME280;35729;52.090;13.162;2022-12-28T07:06:40;101049.94;;;3.66;89.29
49835;BME280;35729;52.090;13.162;2022-12-28T07:09:11;101043.88;;;3.66;90.36
49835;BME280;35729;52.090;13.162;2022-12-28T07:11:43;101030.91;;;3.64;90.72
49835;BME280;35729;52.090;13.162;2022-12-28T07:14:11;101034.34;;;3.65;91.01
49835;BME280;35729;52.090;13.162;2022-12-28T07:16:40;101019.59;;;3.59;91.31
49835;BME280;35729;52.090;13.162;2022-12-28T07:19:09;101018.78;;;3.63;91.75
49835;BME280;35729;52.090;13.162;2022-12-28T07:21:38;101016.19;;;3.62;92.20
49835;BME280;35729;52.090;13.162;2022-12-28T07:24:07;101010.09;;;3.61;92.34
49835;BME280;35729;52.090;13.162;2022-12-28T07:26:45;101010.09;;;3.61;92.92
49835;BME280;35729;52.090;13.162;2022-12-28T07:29:13;100998.81;;;3.57;92.73
49835;BME280;35729;52.090;13.162;2022-12-28T07:31:41;101004.91;;;3.59;93.08
49835;BME280;35729;52.090;13.162;2022-12-28T07:34:10;100997.94;;;3.57;92.92
49835;BME280;35729;52.090;13.162;2022-12-28T07:36:39;100984.97;;;3.57;93.13
49835;BME280;35729;52.090;13.162;2022-12-28T07:39:08;100991.03;;;3.57;93.45
49835;BME280;35729;52.090;13.162;2022-12-28T07:41:36;100984.97;;;3.57;93.32
49835;BME280;35729;52.090;13.162;2022-12-28T07:44:07;100979.78;;;3.55;93.12
49835;BME280;35729;52.090;13.162;2022-12-28T07:46:36;100973.75;;;3.56;93.03
49835;BME280;35729;52.090;13.162;2022-12-28T07:49:05;100972.00;;;3.57;93.47
49835;BME280;35729;52.090;13.162;2022-12-28T07:51:35;100977.19;;;3.57;92.79
49835;BME280;35729;52.090;13.162;2022-12-28T07:54:04;100978.94;;;3.58;93.18
49835;BME280;35729;52.090;13.162;2022-12-28T07:56:33;100973.75;;;3.58;92.62
49835;BME280;35729;52.090;13.162;2022-12-28T07:59:03;100978.09;;;3.61;93.14
49835;BME280;35729;52.090;13.162;2022-12-28T08:01:35;100970.31;;;3.61;92.73
49835;BME280;35729;52.090;13.162;2022-12-28T08:04:05;100966.81;;;3.57;92.94
49835;BME280;35729;52.090;13.162;2022-12-28T08:06:36;100966.88;;;3.62;93.17
49835;BME280;35729;52.090;13.162;2022-12-28T08:09:06;100965.16;;;3.64;92.89
49835;BME280;35729;52.090;13.162;2022-12-28T08:11:36;100961.69;;;3.65;92.07
49835;BME280;35729;52.090;13.162;2022-12-28T08:14:06;100955.66;;;3.64;92.80
49835;BME280;35729;52.090;13.162;2022-12-28T08:16:39;100960.88;;;3.67;92.92
49835;BME280;35729;52.090;13.162;2022-12-28T08:19:09;100965.22;;;3.70;92.94
49835;BME280;35729;52.090;13.162;2022-12-28T08:21:39;100955.72;;;3.70;92.72
49835;BME280;35729;52.090;13.162;2022-12-28T08:24:12;100953.97;;;3.69;92.46
49835;BME280;35729;52.090;13.162;2022-12-28T08:26:41;100952.28;;;3.74;92.42
49835;BME280;35729;52.090;13.162;2022-12-28T08:29:11;100946.25;;;3.75;92.45
49835;BME280;35729;52.090;13.162;2022-12-28T08:31:44;100948.00;;;3.80;92.29
49835;BME280;35729;52.090;13.162;2022-12-28T08:34:15;100943.72;;;3.82;92.47
49835;BME280;35729;52.090;13.162;2022-12-28T08:36:44;100943.75;;;3.86;91.64
49835;BME280;35729;52.090;13.162;2022-12-28T08:39:12;100936.00;;;3.89;91.65
49835;BME280;35729;52.090;13.162;2022-12-28T08:41:41;100939.50;;;3.93;91.65
49835;BME280;35729;52.090;13.162;2022-12-28T08:44:10;100935.22;;;3.98;91.85
49835;BME280;35729;52.090;13.162;2022-12-28T08:46:38;100926.56;;;4.02;91.96
49835;BME280;35729;52.090;13.162;2022-12-28T08:49:10;100934.41;;;4.07;91.19
49835;BME280;35729;52.090;13.162;2022-12-28T08:51:39;100921.44;;;4.12;91.27
49835;BME280;35729;52.090;13.162;2022-12-28T08:54:09;100911.09;;;4.15;90.92
49835;BME280;35729;52.090;13.162;2022-12-28T08:56:41;100912.88;;;4.22;90.66
49835;BME280;35729;52.090;13.162;2022-12-28T08:59:13;100912.91;;;4.28;90.27
49835;BME280;35729;52.090;13.162;2022-12-28T09:01:41;100905.16;;;4.34;91.31
49835;BME280;35729;52.090;13.162;2022-12-28T09:04:15;100911.28;;;4.43;90.63
49835;BME280;35729;52.090;13.162;2022-12-28T09:06:43;100905.25;;;4.50;89.22
49835;BME280;35729;52.090;13.162;2022-12-28T09:09:13;100913.09;;;4.56;89.64
49835;BME280;35729;52.090;13.162;2022-12-28T09:11:42;100910.53;;;4.62;89.28
49835;BME280;35729;52.090;13.162;2022-12-28T09:14:12;100910.56;;;4.67;88.52
49835;BME280;35729;52.090;13.162;2022-12-28T09:16:41;100895.00;;;4.71;89.67
49835;BME280;35729;52.090;13.162;2022-12-28T09:19:13;100901.91;;;4.72;88.45
49835;BME280;35729;52.090;13.162;2022-12-28T09:21:42;100896.75;;;4.76;88.09
49835;BME280;35729;52.090;13.162;2022-12-28T09:24:13;100900.22;;;4.79;88.48
49835;BME280;35729;52.090;13.162;2022-12-28T09:26:42;100901.09;;;4.80;86.44
49835;BME280;35729;52.090;13.162;2022-12-28T09:29:11;100891.56;;;4.82;87.95
49835;BME280;35729;52.090;13.162;2022-12-28T09:31:41;100889.84;;;4.85;88.83
49835;BME280;35729;52.090;13.162;2022-12-28T09:34:13;100889.84;;;4.88;88.59
49835;BME280;35729;52.090;13.162;2022-12-28T09:36:43;100884.66;;;4.90;88.94
49835;BME280;35729;52.090;13.162;2022-12-28T09:39:13;100879.47;;;4.93;89.20
49835;BME280;35729;52.090;13.162;2022-12-28T09:41:44;100877.75;;;4.92;88.33
49835;BME280;35729;52.090;13.162;2022-12-28T09:44:33;100881.19;;;4.93;89.64
49835;BME280;35729;52.090;13.162;2022-12-28T09:47:12;100867.34;;;4.92;89.13
49835;BME280;35729;52.090;13.162;2022-12-28T09:49:53;100869.94;;;4.92;90.05
49835;BME280;35729;52.090;13.162;2022-12-28T09:52:29;100864.75;;;4.92;89.83
49835;BME280;35729;52.090;13.162;2022-12-28T09:55:04;100869.09;;;4.95;89.62
49835;BME280;35729;52.090;13.162;2022-12-28T09:57:36;100863.03;;;4.94;88.88
49835;BME280;35729;52.090;13.162;2022-12-28T10:00:13;100865.63;;;4.97;90.15
49835;BME280;35729;52.090;13.162;2022-12-28T10:02:44;100848.31;;;4.99;89.91
49835;BME280;35729;52.090;13.162;2022-12-28T10:05:18;100850.00;;;5.00;89.20
49835;BME280;35729;52.090;13.162;2022-12-28T10:07:48;100850.91;;;5.04;89.73
49835;BME280;35729;52.090;13.162;2022-12-28T10:10:18;100862.19;;;5.04;88.74
49835;BME280;35729;52.090;13.162;2022-12-28T10:12:48;100842.22;;;5.06;89.56
49835;BME280;35729;52.090;13.162;2022-12-28T10:15:18;100843.13;;;5.10;89.85
49835;BME280;35729;52.090;13.162;2022-12-28T10:17:48;100835.31;;;5.12;88.92
49835;BME280;35729;52.090;13.162;2022-12-28T10:20:21;100828.38;;;5.14;89.28
49835;BME280;35729;52.090;13.162;2022-12-28T10:22:53;100831.88;;;5.17;89.30
49835;BME280;35729;52.090;13.162;2022-12-28T10:25:24;100824.94;;;5.21;89.85
49835;BME280;35729;52.090;13.162;2022-12-28T10:27:53;100824.94;;;5.21;89.07
49835;BME280;35729;52.090;13.162;2022-12-28T10:30:24;100821.47;;;5.25;89.65
49835;BME280;35729;52.090;13.162;2022-12-28T10:32:55;100819.75;;;5.27;88.41
49835;BME280;35729;52.090;13.162;2022-12-28T10:35:28;100821.47;;;5.31;87.95
49835;BME280;35729;52.090;13.162;2022-12-28T10:38:01;100813.69;;;5.36;88.36
49835;BME280;35729;52.090;13.162;2022-12-28T10:40:33;100814.56;;;5.41;87.83
49835;BME280;35729;52.090;13.162;2022-12-28T10:43:02;100818.03;;;5.46;88.13
49835;BME280;35729;52.090;13.162;2022-12-28T10:45:34;100821.50;;;5.53;88.76
49835;BME280;35729;52.090;13.162;2022-12-28T10:48:08;100810.22;;;5.59;88.22
49835;BME280;35729;52.090;13.162;2022-12-28T10:50:46;100805.88;;;5.62;86.78
49835;BME280;35729;52.090;13.162;2022-12-28T10:53:22;100800.66;;;5.68;88.28
49835;BME280;35729;52.090;13.162;2022-12-28T10:56:01;100804.13;;;5.74;87.38
49835;BME280;35729;52.090;13.162;2022-12-28T10:58:30;100777.25;;;5.78;89.06
49835;BME280;35729;52.090;13.162;2022-12-28T11:01:01;100797.19;;;5.83;88.50
49835;BME280;35729;52.090;13.162;2022-12-28T11:03:31;100797.19;;;5.88;88.27
49835;BME280;35729;52.090;13.162;2022-12-28T11:06:18;100799.78;;;5.91;87.04
49835;BME280;35729;52.090;13.162;2022-12-28T11:09:01;100779.78;;;5.96;86.28
49835;BME280;35729;52.090;13.162;2022-12-28T11:11:31;100784.13;;;5.97;86.58
49835;BME280;35729;52.090;13.162;2022-12-28T11:14:03;100787.66;;;6.04;86.89
49835;BME280;35729;52.090;13.162;2022-12-28T11:16:35;100783.28;;;6.06;86.64
49835;BME280;35729;52.090;13.162;2022-12-28T11:19:04;100781.56;;;6.07;85.65
49835;BME280;35729;52.090;13.162;2022-12-28T11:21:36;100788.50;;;6.11;86.01
49835;BME280;35729;52.090;13.162;2022-12-28T11:24:05;100782.38;;;6.15;86.63
49835;BME280;35729;52.090;13.162;2022-12-28T11:26:34;100778.06;;;6.17;86.49
49835;BME280;35729;52.090;13.162;2022-12-28T11:29:03;100771.09;;;6.19;86.55
49835;BME280;35729;52.090;13.162;2022-12-28T11:31:33;100781.50;;;6.24;86.81
49835;BME280;35729;52.090;13.162;2022-12-28T11:34:05;100778.91;;;6.24;85.60
49835;BME280;35729;52.090;13.162;2022-12-28T11:36:43;100768.47;;;6.28;87.29
49835;BME280;35729;52.090;13.162;2022-12-28T11:39:30;100779.72;;;6.30;85.16
49835;BME280;35729;52.090;13.162;2022-12-28T11:42:00;100777.13;;;6.33;86.17
49835;BME280;35729;52.090;13.162;2022-12-28T11:44:48;100768.44;;;6.36;84.63
49835;BME280;35729;52.090;13.162;2022-12-28T11:47:24;100764.09;;;6.40;83.63
49835;BME280;35729;52.090;13.162;2022-12-28T11:52:59;100757.94;;;6.50;85.67
49835;BME280;35729;52.090;13.162;2022-12-28T11:55:41;100757.06;;;6.54;84.36
49835;BME280;35729;52.090;13.162;2022-12-28T12:01:41;100753.53;;;6.63;84.54
49835;BME280;35729;52.090;13.162;2022-12-28T12:04:31;100751.78;;;6.66;85.84
49835;BME280;35729;52.090;13.162;2022-12-28T12:07:44;100743.09;;;6.67;83.69
49835;BME280;35729;52.090;13.162;2022-12-28T12:10:28;100740.47;;;6.67;83.76
49835;BME280;35729;52.090;13.162;2022-12-28T12:12:59;100740.47;;;6.69;84.33
49835;BME280;35729;52.090;13.162;2022-12-28T12:15:36;100743.06;;;6.71;82.60
49835;BME280;35729;52.090;13.162;2022-12-28T12:18:15;100740.44;;;6.74;84.46
49835;BME280;35729;52.090;13.162;2022-12-28T12:20:52;100730.00;;;6.77;84.07
49835;BME280;35729;52.090;13.162;2022-12-28T12:23:30;100729.09;;;6.79;82.91
49835;BME280;35729;52.090;13.162;2022-12-28T12:26:14;100724.75;;;6.81;82.66
49835;BME280;35729;52.090;13.162;2022-12-28T12:28:53;100740.34;;;6.86;83.47
49835;BME280;35729;52.090;13.162;2022-12-28T12:31:27;100722.97;;;6.88;84.26
49835;BME280;35729;52.090;13.162;2022-12-28T12:34:01;100723.78;;;6.93;83.08
49835;BME280;35729;52.090;13.162;2022-12-28T12:37:04;100718.56;;;6.95;82.65
49835;BME280;35729;52.090;13.162;2022-12-28T12:39:47;100720.28;;;7.00;83.51
49835;BME280;35729;52.090;13.162;2022-12-28T12:42:25;100721.97;;;7.05;83.48
49835;BME280;35729;52.090;13.162;2022-12-28T12:45:00;100718.47;;;7.09;85.14
49835;BME280;35729;52.090;13.162;2022-12-28T12:47:56;100724.56;;;7.09;82.29
49835;BME280;35729;52.090;13.162;2022-12-28T12:50:38;100726.25;;;7.15;82.59
49835;BME280;35729;52.090;13.162;2022-12-28T12:53:22;100721.84;;;7.22;82.99
49835;BME280;35729;52.090;13.162;2022-12-28T12:56:01;100720.06;;;7.27;82.69
49835;BME280;35729;52.090;13.162;2022-12-28T12:58:45;100706.97;;;7.33;81.53
49835;BME280;35729;52.090;13.162;2022-12-28T13:01:26;100718.22;;;7.38;81.46
49835;BME280;35729;52.090;13.162;2022-12-28T13:04:03;100706.84;;;7.47;82.46
49835;BME280;35729;52.090;13.162;2022-12-28T13:06:34;100702.44;;;7.50;81.16
49835;BME280;35729;52.090;13.162;2022-12-28T13:09:04;100711.97;;;7.56;81.98
49835;BME280;35729;52.090;13.162;2022-12-28T13:11:38;100710.16;;;7.61;83.32
49835;BME280;35729;52.090;13.162;2022-12-28T13:14:15;100720.59;;;7.63;81.01
49835;BME280;35729;52.090;13.162;2022-12-28T13:16:47;100704.91;;;7.66;81.32
49835;BME280;35729;52.090;13.162;2022-12-28T13:19:19;100721.47;;;7.63;80.16
49835;BME280;35729;52.090;13.162;2022-12-28T13:21:49;100700.59;;;7.63;82.04
49835;BME280;35729;52.090;13.162;2022-12-28T13:24:20;100701.41;;;7.65;81.50
49835;BME280;35729;52.090;13.162;2022-12-28T13:26:57;100717.97;;;7.64;80.83
49835;BME280;35729;52.090;13.162;2022-12-28T13:29:33;100707.53;;;7.63;80.37
49835;BME280;35729;52.090;13.162;2022-12-28T13:32:03;100704.06;;;7.62;81.30
49835;BME280;35729;52.090;13.162;2022-12-28T13:34:32;100697.13;;;7.61;81.22
49835;BME280;35729;52.090;13.162;2022-12-28T13:37:11;100700.66;;;7.57;81.16